sensor_id;sensor_type;location;lat;lon;timestamp;temperature;humidity
25450;DHT22;13371;52.080;5.624;2023-06-22T00:00:17;22.20;90.40
25450;DHT22;13371;52.080;5.624;2023-06-22T00:06:00;22.10;90.80
25450;DHT22;13371;52.080;5.624;2023-06-22T00:09:01;22.10;91.20
25450;DHT22;13371;52.080;5.624;2023-06-22T00:11:37;22.20;90.90
25450;DHT22;13371;52.080;5.624;2023-06-22T00:17:50;22.20;91.20
25450;DHT22;13371;52.080;5.624;2023-06-22T00:20:37;22.00;91.40
25450;DHT22;13371;52.080;5.624;2023-06-22T00:27:19;21.90;91.70
25450;DHT22;13371;52.080;5.624;2023-06-22T00:30:15;22.00;91.60
25450;DHT22;13371;52.080;5.624;2023-06-22T00:32:41;22.00;91.50
25450;DHT22;13371;52.080;5.624;2023-06-22T00:35:07;22.10;91.30
25450;DHT22;13371;52.080;5.624;2023-06-22T00:37:34;21.90;91.50
25450;DHT22;13371;52.080;5.624;2023-06-22T00:40:01;21.70;91.90
25450;DHT22;13371;52.080;5.624;2023-06-22T00:42:27;21.70;91.90
25450;DHT22;13371;52.080;5.624;2023-06-22T00:44:52;21.90;91.60
25450;DHT22;13371;52.080;5.624;2023-06-22T00:47:18;21.90;91.50
25450;DHT22;13371;52.080;5.624;2023-06-22T00:49:44;21.80;91.60
25450;DHT22;13371;52.080;5.624;2023-06-22T00:52:12;21.80;91.70
25450;DHT22;13371;52.080;5.624;2023-06-22T00:54:42;21.90;91.50
25450;DHT22;13371;52.080;5.624;2023-06-22T00:57:12;21.80;91.60
25450;DHT22;13371;52.080;5.624;2023-06-22T00:59:42;21.90;91.60
25450;DHT22;13371;52.080;5.624;2023-06-22T01:02:08;21.50;92.00
25450;DHT22;13371;52.080;5.624;2023-06-22T01:04:36;21.60;92.00
25450;DHT22;13371;52.080;5.624;2023-06-22T01:07:15;21.70;91.80
25450;DHT22;13371;52.080;5.624;2023-06-22T01:10:07;21.70;91.60
25450;DHT22;13371;52.080;5.624;2023-06-22T01:12:42;21.60;91.80
25450;DHT22;13371;52.080;5.624;2023-06-22T01:15:23;21.40;92.10
25450;DHT22;13371;52.080;5.624;2023-06-22T01:17:52;21.50;92.10
25450;DHT22;13371;52.080;5.624;2023-06-22T01:20:20;21.50;92.00
25450;DHT22;13371;52.080;5.624;2023-06-22T01:23:11;21.50;91.80
25450;DHT22;13371;52.080;5.624;2023-06-22T01:25:47;21.60;91.70
25450;DHT22;13371;52.080;5.624;2023-06-22T01:28:23;21.50;91.70
25450;DHT22;13371;52.080;5.624;2023-06-22T01:30:49;21.50;91.70
25450;DHT22;13371;52.080;5.624;2023-06-22T01:33:33;21.40;91.80
25450;DHT22;13371;52.080;5.624;2023-06-22T01:36:00;21.50;91.70
25450;DHT22;13371;52.080;5.624;2023-06-22T01:38:26;21.20;92.10
25450;DHT22;13371;52.080;5.624;2023-06-22T01:40:53;21.30;92.30
25450;DHT22;13371;52.080;5.624;2023-06-22T01:43:21;21.30;92.30
25450;DHT22;13371;52.080;5.624;2023-06-22T01:45:49;21.30;92.30
25450;DHT22;13371;52.080;5.624;2023-06-22T01:48:15;21.10;92.60
25450;DHT22;13371;52.080;5.624;2023-06-22T01:50:41;21.10;92.60
25450;DHT22;13371;52.080;5.624;2023-06-22T01:53:07;21.10;92.70
25450;DHT22;13371;52.080;5.624;2023-06-22T01:55:32;21.10;92.60
25450;DHT22;13371;52.080;5.624;2023-06-22T01:57:58;21.10;92.90
25450;DHT22;13371;52.080;5.624;2023-06-22T02:00:25;20.90;93.00
25450;DHT22;13371;52.080;5.624;2023-06-22T02:02:59;20.90;93.00
25450;DHT22;13371;52.080;5.624;2023-06-22T02:05:28;21.00;93.40
25450;DHT22;13371;52.080;5.624;2023-06-22T02:08:10;21.00;92.80
25450;DHT22;13371;52.080;5.624;2023-06-22T02:10:38;21.00;92.60
25450;DHT22;13371;52.080;5.624;2023-06-22T02:13:07;20.80;93.00
25450;DHT22;13371;52.080;5.624;2023-06-22T02:15:34;20.80;92.90
25450;DHT22;13371;52.080;5.624;2023-06-22T02:18:00;20.70;93.20
25450;DHT22;13371;52.080;5.624;2023-06-22T02:20:26;20.80;93.20
25450;DHT22;13371;52.080;5.624;2023-06-22T02:22:51;20.80;93.40
25450;DHT22;13371;52.080;5.624;2023-06-22T02:25:17;20.70;93.50
25450;DHT22;13371;52.080;5.624;2023-06-22T02:27:44;20.70;93.60
25450;DHT22;13371;52.080;5.624;2023-06-22T02:30:10;20.80;93.60
25450;DHT22;13371;52.080;5.624;2023-06-22T02:32:36;20.80;93.40
25450;DHT22;13371;52.080;5.624;2023-06-22T02:35:02;20.70;93.30
25450;DHT22;13371;52.080;5.624;2023-06-22T02:37:31;20.70;93.40
25450;DHT22;13371;52.080;5.624;2023-06-22T02:39:56;20.70;93.40
25450;DHT22;13371;52.080;5.624;2023-06-22T02:42:22;20.80;93.50
25450;DHT22;13371;52.080;5.624;2023-06-22T02:44:48;20.60;93.60
25450;DHT22;13371;52.080;5.624;2023-06-22T02:47:15;20.60;93.50
25450;DHT22;13371;52.080;5.624;2023-06-22T02:49:41;20.60;93.90
25450;DHT22;13371;52.080;5.624;2023-06-22T02:52:07;20.60;93.60
25450;DHT22;13371;52.080;5.624;2023-06-22T02:54:33;20.40;94.00
25450;DHT22;13371;52.080;5.624;2023-06-22T02:56:59;20.40;93.90
25450;DHT22;13371;52.080;5.624;2023-06-22T02:59:28;20.50;94.10
25450;DHT22;13371;52.080;5.624;2023-06-22T03:01:53;20.40;94.20
25450;DHT22;13371;52.080;5.624;2023-06-22T03:04:19;20.40;94.00
25450;DHT22;13371;52.080;5.624;2023-06-22T03:06:45;20.50;94.00
25450;DHT22;13371;52.080;5.624;2023-06-22T03:09:16;20.50;94.00
25450;DHT22;13371;52.080;5.624;2023-06-22T03:11:42;20.50;94.00
25450;DHT22;13371;52.080;5.624;2023-06-22T03:14:08;20.40;94.20
25450;DHT22;13371;52.080;5.624;2023-06-22T03:16:34;20.30;94.30
25450;DHT22;13371;52.080;5.624;2023-06-22T03:19:00;20.20;94.80
25450;DHT22;13371;52.080;5.624;2023-06-22T03:21:28;20.10;94.90
25450;DHT22;13371;52.080;5.624;2023-06-22T03:23:54;20.30;94.60
25450;DHT22;13371;52.080;5.624;2023-06-22T03:26:20;20.40;94.30
25450;DHT22;13371;52.080;5.624;2023-06-22T03:28:46;20.60;94.00
25450;DHT22;13371;52.080;5.624;2023-06-22T03:31:12;20.30;94.10
25450;DHT22;13371;52.080;5.624;2023-06-22T03:33:37;20.20;94.50
25450;DHT22;13371;52.080;5.624;2023-06-22T03:36:03;20.20;94.40
25450;DHT22;13371;52.080;5.624;2023-06-22T03:38:29;20.30;94.30
25450;DHT22;13371;52.080;5.624;2023-06-22T03:40:54;20.40;94.30
25450;DHT22;13371;52.080;5.624;2023-06-22T03:43:20;20.50;94.00
25450;DHT22;13371;52.080;5.624;2023-06-22T03:45:46;20.50;93.80
25450;DHT22;13371;52.080;5.624;2023-06-22T03:48:12;20.50;94.10
25450;DHT22;13371;52.080;5.624;2023-06-22T03:50:37;20.40;94.40
25450;DHT22;13371;52.080;5.624;2023-06-22T03:53:03;20.50;94.30
25450;DHT22;13371;52.080;5.624;2023-06-22T03:55:29;20.50;94.50
25450;DHT22;13371;52.080;5.624;2023-06-22T03:57:55;20.40;94.60
25450;DHT22;13371;52.080;5.624;2023-06-22T04:00:23;20.40;94.60
25450;DHT22;13371;52.080;5.624;2023-06-22T04:02:48;20.40;94.70
25450;DHT22;13371;52.080;5.624;2023-06-22T04:05:14;20.20;94.70
25450;DHT22;13371;52.080;5.624;2023-06-22T04:07:40;20.30;95.00
25450;DHT22;13371;52.080;5.624;2023-06-22T04:10:06;20.20;94.90
25450;DHT22;13371;52.080;5.624;2023-06-22T04:12:32;20.30;94.80
25450;DHT22;13371;52.080;5.624;2023-06-22T04:14:57;20.40;94.80
25450;DHT22;13371;52.080;5.624;2023-06-22T04:17:23;20.40;94.60
25450;DHT22;13371;52.080;5.624;2023-06-22T04:19:51;20.50;94.50
25450;DHT22;13371;52.080;5.624;2023-06-22T04:22:16;20.30;94.70
25450;DHT22;13371;52.080;5.624;2023-06-22T04:24:42;20.30;94.70
25450;DHT22;13371;52.080;5.624;2023-06-22T04:27:08;20.20;94.80
25450;DHT22;13371;52.080;5.624;2023-06-22T04:29:33;20.30;95.00
25450;DHT22;13371;52.080;5.624;2023-06-22T04:31:59;20.20;95.00
25450;DHT22;13371;52.080;5.624;2023-06-22T04:34:31;20.30;94.80
25450;DHT22;13371;52.080;5.624;2023-06-22T04:36:57;20.40;94.80
25450;DHT22;13371;52.080;5.624;2023-06-22T04:39:23;20.30;94.80
25450;DHT22;13371;52.080;5.624;2023-06-22T04:41:49;20.60;95.00
25450;DHT22;13371;52.080;5.624;2023-06-22T04:44:18;20.30;95.40
25450;DHT22;13371;52.080;5.624;2023-06-22T04:46:53;20.40;95.60
25450;DHT22;13371;52.080;5.624;2023-06-22T04:49:20;20.40;95.80
25450;DHT22;13371;52.080;5.624;2023-06-22T04:51:47;20.40;95.90
25450;DHT22;13371;52.080;5.624;2023-06-22T04:54:13;20.10;97.30
25450;DHT22;13371;52.080;5.624;2023-06-22T05:26:33;20.40;99.90
25450;DHT22;13371;52.080;5.624;2023-06-22T05:29:04;20.40;99.60
25450;DHT22;13371;52.080;5.624;2023-06-22T05:31:37;20.50;99.80
25450;DHT22;13371;52.080;5.624;2023-06-22T06:55:01;23.40;94.70
25450;DHT22;13371;52.080;5.624;2023-06-22T06:58:06;23.40;94.00
25450;DHT22;13371;52.080;5.624;2023-06-22T07:00:39;23.70;94.30
25450;DHT22;13371;52.080;5.624;2023-06-22T07:06:51;23.80;92.70
25450;DHT22;13371;52.080;5.624;2023-06-22T07:09:19;23.80;93.50
25450;DHT22;13371;52.080;5.624;2023-06-22T07:11:45;24.00;92.60
25450;DHT22;13371;52.080;5.624;2023-06-22T07:14:14;23.60;93.00
25450;DHT22;13371;52.080;5.624;2023-06-22T07:16:40;23.50;93.50
25450;DHT22;13371;52.080;5.624;2023-06-22T07:19:07;23.80;92.70
25450;DHT22;13371;52.080;5.624;2023-06-22T07:21:32;24.10;94.60
25450;DHT22;13371;52.080;5.624;2023-06-22T07:31:35;24.70;91.50
25450;DHT22;13371;52.080;5.624;2023-06-22T09:00:52;25.90;81.30
25450;DHT22;13371;52.080;5.624;2023-06-22T09:03:57;26.30;81.60
25450;DHT22;13371;52.080;5.624;2023-06-22T09:09:58;26.40;81.30
25450;DHT22;13371;52.080;5.624;2023-06-22T09:12:29;26.10;81.00
25450;DHT22;13371;52.080;5.624;2023-06-22T09:14:56;26.40;81.90
25450;DHT22;13371;52.080;5.624;2023-06-22T09:17:22;27.00;81.10
25450;DHT22;13371;52.080;5.624;2023-06-22T09:19:48;26.90;80.10
25450;DHT22;13371;52.080;5.624;2023-06-22T09:22:14;26.80;81.80
25450;DHT22;13371;52.080;5.624;2023-06-22T09:24:40;27.00;81.00
25450;DHT22;13371;52.080;5.624;2023-06-22T09:27:05;26.80;79.00
25450;DHT22;13371;52.080;5.624;2023-06-22T09:29:31;27.00;81.20
25450;DHT22;13371;52.080;5.624;2023-06-22T09:31:59;27.00;77.90
25450;DHT22;13371;52.080;5.624;2023-06-22T09:34:25;26.80;79.30
25450;DHT22;13371;52.080;5.624;2023-06-22T09:36:50;26.50;76.30
25450;DHT22;13371;52.080;5.624;2023-06-22T09:39:18;26.50;78.80
25450;DHT22;13371;52.080;5.624;2023-06-22T09:41:44;27.10;78.40
25450;DHT22;13371;52.080;5.624;2023-06-22T09:44:09;27.40;78.20
25450;DHT22;13371;52.080;5.624;2023-06-22T09:46:35;27.80;79.10
25450;DHT22;13371;52.080;5.624;2023-06-22T09:49:01;27.90;79.00
25450;DHT22;13371;52.080;5.624;2023-06-22T09:51:26;28.10;80.60
25450;DHT22;13371;52.080;5.624;2023-06-22T09:53:52;27.80;73.70
25450;DHT22;13371;52.080;5.624;2023-06-22T09:56:19;27.70;74.40
25450;DHT22;13371;52.080;5.624;2023-06-22T09:58:46;27.30;75.80
25450;DHT22;13371;52.080;5.624;2023-06-22T10:01:13;27.20;77.10
25450;DHT22;13371;52.080;5.624;2023-06-22T10:03:42;27.30;78.20
25450;DHT22;13371;52.080;5.624;2023-06-22T10:06:08;27.20;76.10
25450;DHT22;13371;52.080;5.624;2023-06-22T10:08:34;27.30;75.80
25450;DHT22;13371;52.080;5.624;2023-06-22T10:11:01;26.90;75.10
25450;DHT22;13371;52.080;5.624;2023-06-22T10:13:26;27.20;78.60
25450;DHT22;13371;52.080;5.624;2023-06-22T10:15:52;27.40;74.70
25450;DHT22;13371;52.080;5.624;2023-06-22T10:18:18;27.30;77.40
25450;DHT22;13371;52.080;5.624;2023-06-22T10:20:49;27.40;75.90
25450;DHT22;13371;52.080;5.624;2023-06-22T10:23:19;26.80;75.70
25450;DHT22;13371;52.080;5.624;2023-06-22T10:25:45;26.80;76.10
25450;DHT22;13371;52.080;5.624;2023-06-22T10:28:11;26.80;75.90
25450;DHT22;13371;52.080;5.624;2023-06-22T10:30:38;26.80;74.30
25450;DHT22;13371;52.080;5.624;2023-06-22T10:33:03;26.70;75.40
25450;DHT22;13371;52.080;5.624;2023-06-22T10:35:29;26.80;75.00
25450;DHT22;13371;52.080;5.624;2023-06-22T10:37:55;26.60;76.90
25450;DHT22;13371;52.080;5.624;2023-06-22T10:40:21;26.80;77.30
25450;DHT22;13371;52.080;5.624;2023-06-22T10:42:47;26.80;75.40
25450;DHT22;13371;52.080;5.624;2023-06-22T10:45:12;27.00;79.20
25450;DHT22;13371;52.080;5.624;2023-06-22T10:47:39;27.40;76.40
25450;DHT22;13371;52.080;5.624;2023-06-22T10:50:05;27.50;76.40
25450;DHT22;13371;52.080;5.624;2023-06-22T10:52:31;27.60;76.30
25450;DHT22;13371;52.080;5.624;2023-06-22T10:54:56;27.50;75.20
25450;DHT22;13371;52.080;5.624;2023-06-22T10:57:22;27.80;75.90
25450;DHT22;13371;52.080;5.624;2023-06-22T10:59:48;27.50;76.70
25450;DHT22;13371;52.080;5.624;2023-06-22T11:02:13;27.70;76.50
25450;DHT22;13371;52.080;5.624;2023-06-22T11:04:39;27.30;74.40
25450;DHT22;13371;52.080;5.624;2023-06-22T11:07:05;27.00;75.50
25450;DHT22;13371;52.080;5.624;2023-06-22T11:09:30;27.10;76.10
25450;DHT22;13371;52.080;5.624;2023-06-22T11:11:57;27.10;75.50
25450;DHT22;13371;52.080;5.624;2023-06-22T11:14:24;27.10;77.70
25450;DHT22;13371;52.080;5.624;2023-06-22T11:16:50;27.00;76.10
25450;DHT22;13371;52.080;5.624;2023-06-22T11:19:16;26.60;79.00
25450;DHT22;13371;52.080;5.624;2023-06-22T11:21:41;26.70;78.90
25450;DHT22;13371;52.080;5.624;2023-06-22T11:24:07;26.60;77.80
25450;DHT22;13371;52.080;5.624;2023-06-22T11:26:33;26.50;78.60
25450;DHT22;13371;52.080;5.624;2023-06-22T11:28:59;26.40;78.90
25450;DHT22;13371;52.080;5.624;2023-06-22T11:31:25;26.40;81.80
25450;DHT22;13371;52.080;5.624;2023-06-22T11:33:50;26.70;80.60
25450;DHT22;13371;52.080;5.624;2023-06-22T11:36:16;26.70;78.70
25450;DHT22;13371;52.080;5.624;2023-06-22T11:38:43;26.40;80.70
25450;DHT22;13371;52.080;5.624;2023-06-22T11:41:09;26.40;82.00
25450;DHT22;13371;52.080;5.624;2023-06-22T11:43:35;26.40;79.30
25450;DHT22;13371;52.080;5.624;2023-06-22T11:46:03;26.40;80.40
25450;DHT22;13371;52.080;5.624;2023-06-22T11:48:28;26.70;81.70
25450;DHT22;13371;52.080;5.624;2023-06-22T11:50:54;26.50;80.00
25450;DHT22;13371;52.080;5.624;2023-06-22T11:53:25;26.70;84.20
25450;DHT22;13371;52.080;5.624;2023-06-22T11:55:51;26.80;84.00
25450;DHT22;13371;52.080;5.624;2023-06-22T11:58:18;26.70;81.40
25450;DHT22;13371;52.080;5.624;2023-06-22T12:00:43;26.80;84.10
25450;DHT22;13371;52.080;5.624;2023-06-22T12:03:10;26.60;87.00
25450;DHT22;13371;52.080;5.624;2023-06-22T12:05:36;26.80;86.10
25450;DHT22;13371;52.080;5.624;2023-06-22T12:08:02;27.00;84.80
25450;DHT22;13371;52.080;5.624;2023-06-22T12:10:28;27.30;83.40
25450;DHT22;13371;52.080;5.624;2023-06-22T12:12:56;27.30;84.40
25450;DHT22;13371;52.080;5.624;2023-06-22T12:15:26;27.00;80.50
25450;DHT22;13371;52.080;5.624;2023-06-22T12:17:52;27.10;83.80
25450;DHT22;13371;52.080;5.624;2023-06-22T12:20:17;27.00;80.80
25450;DHT22;13371;52.080;5.624;2023-06-22T12:22:44;26.80;83.50
25450;DHT22;13371;52.080;5.624;2023-06-22T12:25:09;26.80;83.90
25450;DHT22;13371;52.080;5.624;2023-06-22T12:27:36;26.60;82.80
25450;DHT22;13371;52.080;5.624;2023-06-22T12:30:02;26.30;82.90
25450;DHT22;13371;52.080;5.624;2023-06-22T12:32:28;26.10;85.80
25450;DHT22;13371;52.080;5.624;2023-06-22T12:34:54;26.30;84.00
25450;DHT22;13371;52.080;5.624;2023-06-22T12:37:20;26.40;86.20
25450;DHT22;13371;52.080;5.624;2023-06-22T12:39:46;26.60;85.40
25450;DHT22;13371;52.080;5.624;2023-06-22T12:42:11;26.60;85.40
25450;DHT22;13371;52.080;5.624;2023-06-22T12:44:39;26.50;87.20
25450;DHT22;13371;52.080;5.624;2023-06-22T12:47:07;26.40;85.70
25450;DHT22;13371;52.080;5.624;2023-06-22T12:49:36;26.10;84.70
25450;DHT22;13371;52.080;5.624;2023-06-22T12:52:03;26.20;87.00
25450;DHT22;13371;52.080;5.624;2023-06-22T12:54:29;26.30;88.90
25450;DHT22;13371;52.080;5.624;2023-06-22T12:56:55;26.30;89.10
25450;DHT22;13371;52.080;5.624;2023-06-22T12:59:21;26.40;89.90
25450;DHT22;13371;52.080;5.624;2023-06-22T13:01:46;26.50;90.00
25450;DHT22;13371;52.080;5.624;2023-06-22T13:04:12;26.70;90.60
25450;DHT22;13371;52.080;5.624;2023-06-22T13:06:41;26.80;90.50
25450;DHT22;13371;52.080;5.624;2023-06-22T13:09:07;26.80;90.40
25450;DHT22;13371;52.080;5.624;2023-06-22T13:11:34;26.90;90.70
25450;DHT22;13371;52.080;5.624;2023-06-22T13:13:59;26.70;90.80
25450;DHT22;13371;52.080;5.624;2023-06-22T13:16:25;26.70;90.90
25450;DHT22;13371;52.080;5.624;2023-06-22T13:18:50;26.80;91.10
25450;DHT22;13371;52.080;5.624;2023-06-22T13:21:16;26.60;91.40
25450;DHT22;13371;52.080;5.624;2023-06-22T13:23:41;26.80;91.60
25450;DHT22;13371;52.080;5.624;2023-06-22T13:26:07;26.80;92.20
25450;DHT22;13371;52.080;5.624;2023-06-22T13:28:33;26.70;92.50
25450;DHT22;13371;52.080;5.624;2023-06-22T13:30:59;26.80;92.90
25450;DHT22;13371;52.080;5.624;2023-06-22T13:33:24;26.80;93.20
25450;DHT22;13371;52.080;5.624;2023-06-22T13:35:50;26.60;93.60
25450;DHT22;13371;52.080;5.624;2023-06-22T13:38:15;25.90;94.20
25450;DHT22;13371;52.080;5.624;2023-06-22T13:40:42;25.70;94.60
25450;DHT22;13371;52.080;5.624;2023-06-22T13:43:08;25.60;95.10
25450;DHT22;13371;52.080;5.624;2023-06-22T13:45:34;26.00;94.90
25450;DHT22;13371;52.080;5.624;2023-06-22T13:47:59;26.20;94.50
25450;DHT22;13371;52.080;5.624;2023-06-22T13:50:25;26.00;94.10
25450;DHT22;13371;52.080;5.624;2023-06-22T13:52:50;25.70;95.10
25450;DHT22;13371;52.080;5.624;2023-06-22T13:55:16;26.00;94.90
25450;DHT22;13371;52.080;5.624;2023-06-22T13:57:42;26.00;94.90
25450;DHT22;13371;52.080;5.624;2023-06-22T14:00:09;26.30;95.00
25450;DHT22;13371;52.080;5.624;2023-06-22T14:02:35;26.40;94.60
25450;DHT22;13371;52.080;5.624;2023-06-22T14:05:01;26.30;94.60
25450;DHT22;13371;52.080;5.624;2023-06-22T14:07:27;26.40;94.60
25450;DHT22;13371;52.080;5.624;2023-06-22T14:09:53;26.00;94.10
25450;DHT22;13371;52.080;5.624;2023-06-22T14:12:19;25.70;94.20
25450;DHT22;13371;52.080;5.624;2023-06-22T14:14:44;25.80;95.00
25450;DHT22;13371;52.080;5.624;2023-06-22T14:17:10;25.90;95.20
25450;DHT22;13371;52.080;5.624;2023-06-22T14:19:36;25.70;95.80
25450;DHT22;13371;52.080;5.624;2023-06-22T14:22:03;25.60;95.70
25450;DHT22;13371;52.080;5.624;2023-06-22T14:24:28;25.90;96.10
25450;DHT22;13371;52.080;5.624;2023-06-22T14:26:55;26.10;95.90
25450;DHT22;13371;52.080;5.624;2023-06-22T14:29:21;26.10;96.00
25450;DHT22;13371;52.080;5.624;2023-06-22T14:31:48;26.20;96.00
25450;DHT22;13371;52.080;5.624;2023-06-22T14:34:13;26.10;96.40
25450;DHT22;13371;52.080;5.624;2023-06-22T14:36:39;26.10;96.30
25450;DHT22;13371;52.080;5.624;2023-06-22T14:39:05;26.20;96.20
25450;DHT22;13371;52.080;5.624;2023-06-22T14:41:30;26.20;96.10
25450;DHT22;13371;52.080;5.624;2023-06-22T14:43:56;26.30;95.90
25450;DHT22;13371;52.080;5.624;2023-06-22T14:46:22;26.20;95.80
25450;DHT22;13371;52.080;5.624;2023-06-22T14:48:48;26.10;96.40
25450;DHT22;13371;52.080;5.624;2023-06-22T14:51:14;26.10;95.80
25450;DHT22;13371;52.080;5.624;2023-06-22T14:53:40;25.60;96.80
25450;DHT22;13371;52.080;5.624;2023-06-22T14:56:05;25.70;96.70
25450;DHT22;13371;52.080;5.624;2023-06-22T14:58:32;25.70;97.10
25450;DHT22;13371;52.080;5.624;2023-06-22T15:01:04;25.00;97.20
25450;DHT22;13371;52.080;5.624;2023-06-22T15:03:31;24.60;98.40
25450;DHT22;13371;52.080;5.624;2023-06-22T15:05:58;24.70;99.20
25450;DHT22;13371;52.080;5.624;2023-06-22T15:08:24;24.60;99.50
25450;DHT22;13371;52.080;5.624;2023-06-22T15:10:51;24.70;98.80
25450;DHT22;13371;52.080;5.624;2023-06-22T15:13:17;24.60;99.00
25450;DHT22;13371;52.080;5.624;2023-06-22T15:15:43;24.70;98.70
25450;DHT22;13371;52.080;5.624;2023-06-22T15:18:09;24.60;99.00
25450;DHT22;13371;52.080;5.624;2023-06-22T15:20:34;25.00;98.40
25450;DHT22;13371;52.080;5.624;2023-06-22T15:23:00;25.10;98.30
25450;DHT22;13371;52.080;5.624;2023-06-22T15:25:26;25.20;98.00
25450;DHT22;13371;52.080;5.624;2023-06-22T15:27:51;25.30;98.20
25450;DHT22;13371;52.080;5.624;2023-06-22T15:30:17;25.30;97.90
25450;DHT22;13371;52.080;5.624;2023-06-22T15:32:44;24.90;98.20
25450;DHT22;13371;52.080;5.624;2023-06-22T15:35:10;24.90;99.10
25450;DHT22;13371;52.080;5.624;2023-06-22T15:37:36;25.00;99.30
25450;DHT22;13371;52.080;5.624;2023-06-22T15:40:02;24.30;99.10
25450;DHT22;13371;52.080;5.624;2023-06-22T15:42:28;23.70;98.70
25450;DHT22;13371;52.080;5.624;2023-06-22T15:44:53;23.50;99.70
25450;DHT22;13371;52.080;5.624;2023-06-22T15:47:19;23.10;99.10
25450;DHT22;13371;52.080;5.624;2023-06-22T15:49:50;22.70;99.50
25450;DHT22;13371;52.080;5.624;2023-06-22T15:52:17;22.60;99.90
25450;DHT22;13371;52.080;5.624;2023-06-22T15:54:47;22.80;99.90
25450;DHT22;13371;52.080;5.624;2023-06-22T15:57:13;22.70;99.90
25450;DHT22;13371;52.080;5.624;2023-06-22T15:59:40;22.50;99.90
25450;DHT22;13371;52.080;5.624;2023-06-22T16:02:06;22.60;99.90
25450;DHT22;13371;52.080;5.624;2023-06-22T16:04:32;22.70;99.90
25450;DHT22;13371;52.080;5.624;2023-06-22T16:06:58;22.80;99.90
25450;DHT22;13371;52.080;5.624;2023-06-22T16:09:23;23.00;99.90
25450;DHT22;13371;52.080;5.624;2023-06-22T16:11:49;22.90;99.90
25450;DHT22;13371;52.080;5.624;2023-06-22T16:14:14;23.00;99.90
25450;DHT22;13371;52.080;5.624;2023-06-22T16:16:40;22.80;99.90
25450;DHT22;13371;52.080;5.624;2023-06-22T16:19:06;23.00;99.90
25450;DHT22;13371;52.080;5.624;2023-06-22T16:21:31;22.60;99.90
25450;DHT22;13371;52.080;5.624;2023-06-22T16:23:57;22.60;99.90
25450;DHT22;13371;52.080;5.624;2023-06-22T16:26:22;22.60;99.90
25450;DHT22;13371;52.080;5.624;2023-06-22T16:28:49;22.80;99.90
25450;DHT22;13371;52.080;5.624;2023-06-22T16:31:15;22.80;99.90
25450;DHT22;13371;52.080;5.624;2023-06-22T16:33:41;22.70;99.90
25450;DHT22;13371;52.080;5.624;2023-06-22T16:36:12;22.80;99.90
25450;DHT22;13371;52.080;5.624;2023-06-22T16:38:38;23.00;99.90
25450;DHT22;13371;52.080;5.624;2023-06-22T16:41:04;22.70;99.90
25450;DHT22;13371;52.080;5.624;2023-06-22T16:43:32;22.60;99.90
25450;DHT22;13371;52.080;5.624;2023-06-22T16:45:58;22.70;99.90
25450;DHT22;13371;52.080;5.624;2023-06-22T16:48:24;22.80;99.90
25450;DHT22;13371;52.080;5.624;2023-06-22T16:50:49;23.00;99.90
25450;DHT22;13371;52.080;5.624;2023-06-22T16:53:15;23.00;99.90
25450;DHT22;13371;52.080;5.624;2023-06-22T16:55:42;22.90;99.90
25450;DHT22;13371;52.080;5.624;2023-06-22T16:58:09;23.00;99.90
25450;DHT22;13371;52.080;5.624;2023-06-22T17:00:43;23.10;99.90
25450;DHT22;13371;52.080;5.624;2023-06-22T17:03:11;23.20;99.90
25450;DHT22;13371;52.080;5.624;2023-06-22T17:05:40;23.30;99.90
25450;DHT22;13371;52.080;5.624;2023-06-22T17:08:09;23.40;99.90
25450;DHT22;13371;52.080;5.624;2023-06-22T17:10:38;23.40;99.90
25450;DHT22;13371;52.080;5.624;2023-06-22T17:13:04;23.40;99.90
25450;DHT22;13371;52.080;5.624;2023-06-22T17:15:31;23.40;99.90
25450;DHT22;13371;52.080;5.624;2023-06-22T17:17:57;23.40;99.90
25450;DHT22;13371;52.080;5.624;2023-06-22T17:20:23;23.40;99.90
25450;DHT22;13371;52.080;5.624;2023-06-22T17:22:50;23.30;99.90
25450;DHT22;13371;52.080;5.624;2023-06-22T17:25:17;23.10;99.90
25450;DHT22;13371;52.080;5.624;2023-06-22T17:27:47;23.00;99.90
25450;DHT22;13371;52.080;5.624;2023-06-22T17:30:16;22.80;99.90
25450;DHT22;13371;52.080;5.624;2023-06-22T17:32:47;22.70;99.90
25450;DHT22;13371;52.080;5.624;2023-06-22T17:35:13;22.60;99.90
25450;DHT22;13371;52.080;5.624;2023-06-22T17:37:53;22.60;99.90
25450;DHT22;13371;52.080;5.624;2023-06-22T17:40:24;22.60;99.90
25450;DHT22;13371;52.080;5.624;2023-06-22T17:42:51;22.50;99.90
25450;DHT22;13371;52.080;5.624;2023-06-22T17:45:22;22.50;99.90
25450;DHT22;13371;52.080;5.624;2023-06-22T17:47:49;22.40;99.90
25450;DHT22;13371;52.080;5.624;2023-06-22T17:50:15;22.40;99.90
25450;DHT22;13371;52.080;5.624;2023-06-22T17:52:40;22.40;99.90
25450;DHT22;13371;52.080;5.624;2023-06-22T17:55:06;22.40;99.90
25450;DHT22;13371;52.080;5.624;2023-06-22T17:57:39;22.50;99.90
25450;DHT22;13371;52.080;5.624;2023-06-22T18:00:07;22.40;99.90
25450;DHT22;13371;52.080;5.624;2023-06-22T18:02:41;22.40;99.90
25450;DHT22;13371;52.080;5.624;2023-06-22T18:05:10;22.50;99.90
25450;DHT22;13371;52.080;5.624;2023-06-22T18:07:36;22.30;99.90
25450;DHT22;13371;52.080;5.624;2023-06-22T18:10:03;22.20;99.90
25450;DHT22;13371;52.080;5.624;2023-06-22T18:12:29;22.20;99.90
25450;DHT22;13371;52.080;5.624;2023-06-22T18:14:57;22.20;99.90
25450;DHT22;13371;52.080;5.624;2023-06-22T18:17:24;22.20;99.90
25450;DHT22;13371;52.080;5.624;2023-06-22T18:19:50;22.10;99.90
25450;DHT22;13371;52.080;5.624;2023-06-22T18:22:18;21.90;99.90
25450;DHT22;13371;52.080;5.624;2023-06-22T18:24:44;21.70;99.90
25450;DHT22;13371;52.080;5.624;2023-06-22T18:27:11;21.80;99.90
25450;DHT22;13371;52.080;5.624;2023-06-22T18:29:38;21.70;99.90
25450;DHT22;13371;52.080;5.624;2023-06-22T18:32:05;21.60;99.90
25450;DHT22;13371;52.080;5.624;2023-06-22T18:34:30;21.50;99.90
25450;DHT22;13371;52.080;5.624;2023-06-22T18:36:59;21.40;99.90
25450;DHT22;13371;52.080;5.624;2023-06-22T18:39:27;21.10;99.90
25450;DHT22;13371;52.080;5.624;2023-06-22T18:41:54;21.10;99.90
25450;DHT22;13371;52.080;5.624;2023-06-22T18:44:24;21.20;99.90
25450;DHT22;13371;52.080;5.624;2023-06-22T18:46:52;21.10;99.90
25450;DHT22;13371;52.080;5.624;2023-06-22T18:49:22;20.90;99.90
25450;DHT22;13371;52.080;5.624;2023-06-22T18:52:05;20.80;99.90
25450;DHT22;13371;52.080;5.624;2023-06-22T18:54:45;20.90;99.90
25450;DHT22;13371;52.080;5.624;2023-06-22T18:57:25;21.00;99.90
25450;DHT22;13371;52.080;5.624;2023-06-22T19:10:22;20.70;99.90
25450;DHT22;13371;52.080;5.624;2023-06-22T19:12:51;20.70;99.90
25450;DHT22;13371;52.080;5.624;2023-06-22T19:15:17;20.60;99.90
25450;DHT22;13371;52.080;5.624;2023-06-22T19:17:43;20.60;99.90
25450;DHT22;13371;52.080;5.624;2023-06-22T19:20:11;20.60;99.90
25450;DHT22;13371;52.080;5.624;2023-06-22T19:22:45;20.50;99.90
25450;DHT22;13371;52.080;5.624;2023-06-22T19:25:18;20.70;99.90